sensor_id;sensor_type;location;lat;lon;timestamp;P1;durP1;ratioP1;P2;durP2;ratioP2
40971;SDS011;26701;47.408;19.174;2023-02-28T00:00:13;27.10;;;13.10;;
40971;SDS011;26701;47.408;19.174;2023-02-28T00:02:40;22.33;;;11.20;;
40971;SDS011;26701;47.408;19.174;2023-02-28T00:05:07;22.65;;;10.52;;
40971;SDS011;26701;47.408;19.174;2023-02-28T00:07:35;20.73;;;10.73;;
40971;SDS011;26701;47.408;19.174;2023-02-28T00:10:01;22.65;;;9.25;;
40971;SDS011;26701;47.408;19.174;2023-02-28T00:12:27;20.95;;;10.25;;
40971;SDS011;26701;47.408;19.174;2023-02-28T00:14:53;18.83;;;10.18;;
40971;SDS011;26701;47.408;19.174;2023-02-28T00:17:19;17.20;;;8.05;;
40971;SDS011;26701;47.408;19.174;2023-02-28T00:19:47;22.17;;;10.07;;
40971;SDS011;26701;47.408;19.174;2023-02-28T00:22:14;19.42;;;9.20;;
40971;SDS011;26701;47.408;19.174;2023-02-28T00:24:40;25.70;;;9.60;;
40971;SDS011;26701;47.408;19.174;2023-02-28T00:27:06;22.00;;;9.77;;
40971;SDS011;26701;47.408;19.174;2023-02-28T00:29:32;18.35;;;8.25;;
40971;SDS011;26701;47.408;19.174;2023-02-28T00:31:58;19.25;;;10.18;;
40971;SDS011;26701;47.408;19.174;2023-02-28T00:34:24;22.13;;;9.35;;
40971;SDS011;26701;47.408;19.174;2023-02-28T00:36:50;21.15;;;8.60;;
40971;SDS011;26701;47.408;19.174;2023-02-28T00:39:16;16.88;;;8.65;;
40971;SDS011;26701;47.408;19.174;2023-02-28T00:41:42;19.05;;;10.00;;
40971;SDS011;26701;47.408;19.174;2023-02-28T00:44:07;17.75;;;9.25;;
40971;SDS011;26701;47.408;19.174;2023-02-28T00:46:34;19.00;;;8.82;;
40971;SDS011;26701;47.408;19.174;2023-02-28T00:49:00;20.13;;;8.57;;
40971;SDS011;26701;47.408;19.174;2023-02-28T00:51:26;20.15;;;9.02;;
40971;SDS011;26701;47.408;19.174;2023-02-28T00:53:51;17.20;;;8.77;;
40971;SDS011;26701;47.408;19.174;2023-02-28T00:56:17;20.45;;;9.65;;
40971;SDS011;26701;47.408;19.174;2023-02-28T00:58:43;16.85;;;8.50;;
40971;SDS011;26701;47.408;19.174;2023-02-28T01:01:09;21.17;;;9.52;;
40971;SDS011;26701;47.408;19.174;2023-02-28T01:03:36;18.85;;;10.30;;
40971;SDS011;26701;47.408;19.174;2023-02-28T01:06:03;19.10;;;9.40;;
40971;SDS011;26701;47.408;19.174;2023-02-28T01:08:29;18.15;;;10.20;;
40971;SDS011;26701;47.408;19.174;2023-02-28T01:10:55;20.73;;;10.73;;
40971;SDS011;26701;47.408;19.174;2023-02-28T01:13:21;20.95;;;10.77;;
40971;SDS011;26701;47.408;19.174;2023-02-28T01:15:52;22.27;;;10.65;;
40971;SDS011;26701;47.408;19.174;2023-02-28T01:18:21;19.15;;;9.63;;
40971;SDS011;26701;47.408;19.174;2023-02-28T01:20:48;17.13;;;10.20;;
40971;SDS011;26701;47.408;19.174;2023-02-28T01:23:15;20.80;;;10.60;;
40971;SDS011;26701;47.408;19.174;2023-02-28T01:25:41;21.88;;;10.35;;
40971;SDS011;26701;47.408;19.174;2023-02-28T01:28:07;20.60;;;9.75;;
40971;SDS011;26701;47.408;19.174;2023-02-28T01:30:33;26.88;;;12.45;;
40971;SDS011;26701;47.408;19.174;2023-02-28T01:32:59;21.63;;;10.75;;
40971;SDS011;26701;47.408;19.174;2023-02-28T01:35:25;21.70;;;9.77;;
40971;SDS011;26701;47.408;19.174;2023-02-28T01:37:51;26.67;;;10.93;;
40971;SDS011;26701;47.408;19.174;2023-02-28T01:40:17;21.08;;;10.90;;
40971;SDS011;26701;47.408;19.174;2023-02-28T01:42:43;22.83;;;9.95;;
40971;SDS011;26701;47.408;19.174;2023-02-28T01:47:52;21.13;;;11.15;;
40971;SDS011;26701;47.408;19.174;2023-02-28T01:50:28;20.85;;;10.25;;
40971;SDS011;26701;47.408;19.174;2023-02-28T01:52:59;22.00;;;10.80;;
40971;SDS011;26701;47.408;19.174;2023-02-28T01:55:30;21.83;;;10.35;;
40971;SDS011;26701;47.408;19.174;2023-02-28T01:57:58;22.55;;;12.18;;
40971;SDS011;26701;47.408;19.174;2023-02-28T02:00:27;19.27;;;9.95;;
40971;SDS011;26701;47.408;19.174;2023-02-28T02:02:59;28.05;;;10.57;;
40971;SDS011;26701;47.408;19.174;2023-02-28T02:05:31;20.70;;;10.90;;
40971;SDS011;26701;47.408;19.174;2023-02-28T02:08:02;23.85;;;10.82;;
40971;SDS011;26701;47.408;19.174;2023-02-28T02:13:05;25.50;;;11.38;;
40971;SDS011;26701;47.408;19.174;2023-02-28T02:18:26;24.30;;;11.10;;
40971;SDS011;26701;47.408;19.174;2023-02-28T02:41:09;21.33;;;10.85;;
40971;SDS011;26701;47.408;19.174;2023-02-28T02:43:53;22.42;;;11.43;;
40971;SDS011;26701;47.408;19.174;2023-02-28T02:46:29;21.00;;;10.55;;
40971;SDS011;26701;47.408;19.174;2023-02-28T02:48:57;21.33;;;10.55;;
40971;SDS011;26701;47.408;19.174;2023-02-28T02:51:29;23.05;;;11.15;;
40971;SDS011;26701;47.408;19.174;2023-02-28T02:54:02;24.27;;;11.80;;
40971;SDS011;26701;47.408;19.174;2023-02-28T02:56:29;21.23;;;11.63;;
40971;SDS011;26701;47.408;19.174;2023-02-28T02:58:59;24.75;;;11.65;;
40971;SDS011;26701;47.408;19.174;2023-02-28T03:01:28;24.25;;;11.15;;
40971;SDS011;26701;47.408;19.174;2023-02-28T03:06:23;25.75;;;13.07;;
40971;SDS011;26701;47.408;19.174;2023-02-28T03:08:49;23.67;;;12.52;;
40971;SDS011;26701;47.408;19.174;2023-02-28T03:11:15;27.92;;;12.77;;
40971;SDS011;26701;47.408;19.174;2023-02-28T03:24:43;24.25;;;11.27;;
40971;SDS011;26701;47.408;19.174;2023-02-28T03:35:41;23.60;;;10.68;;
40971;SDS011;26701;47.408;19.174;2023-02-28T03:38:13;24.90;;;11.82;;
40971;SDS011;26701;47.408;19.174;2023-02-28T03:40:58;24.30;;;9.95;;
40971;SDS011;26701;47.408;19.174;2023-02-28T03:43:35;21.70;;;10.88;;
40971;SDS011;26701;47.408;19.174;2023-02-28T03:46:06;27.02;;;11.70;;
40971;SDS011;26701;47.408;19.174;2023-02-28T03:48:39;22.83;;;10.85;;
40971;SDS011;26701;47.408;19.174;2023-02-28T03:51:10;23.23;;;11.95;;
40971;SDS011;26701;47.408;19.174;2023-02-28T03:53:39;20.27;;;10.77;;
40971;SDS011;26701;47.408;19.174;2023-02-28T03:56:24;19.13;;;10.25;;
40971;SDS011;26701;47.408;19.174;2023-02-28T03:59:02;18.88;;;9.85;;
40971;SDS011;26701;47.408;19.174;2023-02-28T04:04:08;21.45;;;9.82;;
40971;SDS011;26701;47.408;19.174;2023-02-28T04:06:34;24.13;;;10.95;;
40971;SDS011;26701;47.408;19.174;2023-02-28T04:09:01;19.40;;;9.70;;
40971;SDS011;26701;47.408;19.174;2023-02-28T04:11:39;21.80;;;10.20;;
40971;SDS011;26701;47.408;19.174;2023-02-28T04:14:07;19.55;;;9.43;;
40971;SDS011;26701;47.408;19.174;2023-02-28T04:16:34;17.85;;;10.00;;
40971;SDS011;26701;47.408;19.174;2023-02-28T04:19:02;21.98;;;10.25;;
40971;SDS011;26701;47.408;19.174;2023-02-28T04:21:49;24.95;;;10.55;;
40971;SDS011;26701;47.408;19.174;2023-02-28T04:24:16;21.27;;;9.65;;
40971;SDS011;26701;47.408;19.174;2023-02-28T04:26:47;21.38;;;9.73;;
40971;SDS011;26701;47.408;19.174;2023-02-28T04:29:22;17.02;;;9.45;;
40971;SDS011;26701;47.408;19.174;2023-02-28T04:31:50;24.50;;;8.82;;
40971;SDS011;26701;47.408;19.174;2023-02-28T04:34:18;20.08;;;9.00;;
40971;SDS011;26701;47.408;19.174;2023-02-28T04:36:46;18.20;;;9.63;;
40971;SDS011;26701;47.408;19.174;2023-02-28T04:39:14;22.27;;;9.13;;
40971;SDS011;26701;47.408;19.174;2023-02-28T04:41:42;17.60;;;9.02;;
40971;SDS011;26701;47.408;19.174;2023-02-28T04:44:08;16.33;;;9.43;;
40971;SDS011;26701;47.408;19.174;2023-02-28T04:46:34;18.60;;;8.52;;
40971;SDS011;26701;47.408;19.174;2023-02-28T04:49:00;22.85;;;9.38;;
40971;SDS011;26701;47.408;19.174;2023-02-28T04:51:26;17.05;;;7.68;;
40971;SDS011;26701;47.408;19.174;2023-02-28T04:53:52;18.08;;;9.30;;
40971;SDS011;26701;47.408;19.174;2023-02-28T04:56:18;25.48;;;9.82;;
40971;SDS011;26701;47.408;19.174;2023-02-28T04:58:44;18.08;;;8.48;;
40971;SDS011;26701;47.408;19.174;2023-02-28T05:03:44;18.48;;;9.50;;
40971;SDS011;26701;47.408;19.174;2023-02-28T05:06:10;17.70;;;8.88;;
40971;SDS011;26701;47.408;19.174;2023-02-28T05:08:37;18.42;;;8.45;;
40971;SDS011;26701;47.408;19.174;2023-02-28T05:11:03;18.67;;;9.32;;
40971;SDS011;26701;47.408;19.174;2023-02-28T05:13:35;16.98;;;8.90;;
40971;SDS011;26701;47.408;19.174;2023-02-28T05:16:00;18.38;;;10.05;;
40971;SDS011;26701;47.408;19.174;2023-02-28T05:18:27;19.67;;;9.55;;
40971;SDS011;26701;47.408;19.174;2023-02-28T05:20:52;19.45;;;9.15;;
40971;SDS011;26701;47.408;19.174;2023-02-28T05:23:18;19.55;;;10.70;;
40971;SDS011;26701;47.408;19.174;2023-02-28T05:25:45;17.42;;;9.30;;
40971;SDS011;26701;47.408;19.174;2023-02-28T05:28:11;23.08;;;11.98;;
40971;SDS011;26701;47.408;19.174;2023-02-28T05:30:37;31.83;;;14.23;;
40971;SDS011;26701;47.408;19.174;2023-02-28T05:33:03;30.38;;;12.82;;
40971;SDS011;26701;47.408;19.174;2023-02-28T05:35:28;28.50;;;13.77;;
40971;SDS011;26701;47.408;19.174;2023-02-28T05:37:55;28.13;;;13.25;;
40971;SDS011;26701;47.408;19.174;2023-02-28T05:40:21;28.42;;;13.43;;
40971;SDS011;26701;47.408;19.174;2023-02-28T05:42:47;25.40;;;12.10;;
40971;SDS011;26701;47.408;19.174;2023-02-28T05:45:13;19.02;;;11.35;;
40971;SDS011;26701;47.408;19.174;2023-02-28T05:47:39;19.17;;;9.93;;
40971;SDS011;26701;47.408;19.174;2023-02-28T05:50:05;20.50;;;10.55;;
40971;SDS011;26701;47.408;19.174;2023-02-28T05:52:31;23.00;;;10.43;;
40971;SDS011;26701;47.408;19.174;2023-02-28T05:54:57;20.20;;;11.35;;
40971;SDS011;26701;47.408;19.174;2023-02-28T05:57:23;19.08;;;9.38;;
40971;SDS011;26701;47.408;19.174;2023-02-28T05:59:49;18.15;;;9.60;;
40971;SDS011;26701;47.408;19.174;2023-02-28T06:02:16;21.73;;;10.23;;
40971;SDS011;26701;47.408;19.174;2023-02-28T06:04:42;22.15;;;10.43;;
40971;SDS011;26701;47.408;19.174;2023-02-28T06:07:09;20.00;;;9.52;;
40971;SDS011;26701;47.408;19.174;2023-02-28T06:09:35;23.00;;;11.82;;
40971;SDS011;26701;47.408;19.174;2023-02-28T06:12:03;21.15;;;9.80;;
40971;SDS011;26701;47.408;19.174;2023-02-28T06:14:30;30.95;;;12.60;;
40971;SDS011;26701;47.408;19.174;2023-02-28T06:16:57;20.08;;;11.40;;
40971;SDS011;26701;47.408;19.174;2023-02-28T06:19:23;32.40;;;14.77;;
40971;SDS011;26701;47.408;19.174;2023-02-28T06:21:53;18.33;;;9.60;;
40971;SDS011;26701;47.408;19.174;2023-02-28T06:24:20;18.48;;;8.98;;
40971;SDS011;26701;47.408;19.174;2023-02-28T06:26:46;19.92;;;9.60;;
40971;SDS011;26701;47.408;19.174;2023-02-28T06:29:13;19.08;;;9.20;;
40971;SDS011;26701;47.408;19.174;2023-02-28T06:31:46;24.40;;;11.48;;
40971;SDS011;26701;47.408;19.174;2023-02-28T06:36:39;21.25;;;8.90;;
40971;SDS011;26701;47.408;19.174;2023-02-28T06:39:07;24.52;;;10.25;;
40971;SDS011;26701;47.408;19.174;2023-02-28T06:41:33;22.55;;;11.00;;
40971;SDS011;26701;47.408;19.174;2023-02-28T06:44:03;27.77;;;9.32;;
40971;SDS011;26701;47.408;19.174;2023-02-28T06:46:30;17.25;;;9.20;;
40971;SDS011;26701;47.408;19.174;2023-02-28T06:48:57;23.42;;;9.27;;
40971;SDS011;26701;47.408;19.174;2023-02-28T06:51:22;98.32;;;38.25;;
40971;SDS011;26701;47.408;19.174;2023-02-28T06:53:49;45.30;;;21.75;;
40971;SDS011;26701;47.408;19.174;2023-02-28T06:56:16;25.58;;;9.52;;
40971;SDS011;26701;47.408;19.174;2023-02-28T06:58:45;17.60;;;9.35;;
40971;SDS011;26701;47.408;19.174;2023-02-28T07:01:13;19.70;;;10.52;;
40971;SDS011;26701;47.408;19.174;2023-02-28T07:03:39;22.58;;;9.27;;
40971;SDS011;26701;47.408;19.174;2023-02-28T07:06:06;23.55;;;12.15;;
40971;SDS011;26701;47.408;19.174;2023-02-28T07:08:35;19.60;;;9.80;;
40971;SDS011;26701;47.408;19.174;2023-02-28T07:11:01;19.58;;;9.32;;
40971;SDS011;26701;47.408;19.174;2023-02-28T07:13:27;17.77;;;8.65;;
40971;SDS011;26701;47.408;19.174;2023-02-28T07:15:57;21.95;;;10.25;;
40971;SDS011;26701;47.408;19.174;2023-02-28T07:18:25;18.67;;;9.65;;
40971;SDS011;26701;47.408;19.174;2023-02-28T07:20:51;14.57;;;8.60;;
40971;SDS011;26701;47.408;19.174;2023-02-28T07:23:17;18.88;;;8.65;;
40971;SDS011;26701;47.408;19.174;2023-02-28T07:25:44;18.92;;;9.48;;
40971;SDS011;26701;47.408;19.174;2023-02-28T07:28:10;20.00;;;8.75;;
40971;SDS011;26701;47.408;19.174;2023-02-28T07:30:37;19.90;;;9.35;;
40971;SDS011;26701;47.408;19.174;2023-02-28T07:33:03;20.60;;;9.63;;
40971;SDS011;26701;47.408;19.174;2023-02-28T07:35:29;18.17;;;9.30;;
40971;SDS011;26701;47.408;19.174;2023-02-28T07:37:57;16.90;;;8.88;;
40971;SDS011;26701;47.408;19.174;2023-02-28T07:40:23;15.73;;;8.70;;
40971;SDS011;26701;47.408;19.174;2023-02-28T07:42:49;17.70;;;9.18;;
40971;SDS011;26701;47.408;19.174;2023-02-28T07:45:16;18.08;;;10.00;;
40971;SDS011;26701;47.408;19.174;2023-02-28T07:47:42;13.57;;;7.75;;
40971;SDS011;26701;47.408;19.174;2023-02-28T07:50:10;14.02;;;7.63;;
40971;SDS011;26701;47.408;19.174;2023-02-28T07:52:37;12.90;;;6.90;;
40971;SDS011;26701;47.408;19.174;2023-02-28T07:55:04;13.90;;;7.45;;
40971;SDS011;26701;47.408;19.174;2023-02-28T07:57:31;12.63;;;6.70;;
40971;SDS011;26701;47.408;19.174;2023-02-28T07:59:57;14.95;;;7.10;;
40971;SDS011;26701;47.408;19.174;2023-02-28T08:02:23;14.07;;;6.75;;
40971;SDS011;26701;47.408;19.174;2023-02-28T08:04:49;13.32;;;7.22;;
40971;SDS011;26701;47.408;19.174;2023-02-28T08:07:15;13.50;;;7.30;;
40971;SDS011;26701;47.408;19.174;2023-02-28T08:09:42;15.20;;;7.55;;
40971;SDS011;26701;47.408;19.174;2023-02-28T08:12:09;13.20;;;6.85;;
40971;SDS011;26701;47.408;19.174;2023-02-28T08:14:35;16.30;;;7.85;;
40971;SDS011;26701;47.408;19.174;2023-02-28T08:17:01;13.52;;;6.53;;
40971;SDS011;26701;47.408;19.174;2023-02-28T08:19:28;13.43;;;7.25;;
40971;SDS011;26701;47.408;19.174;2023-02-28T08:21:54;13.70;;;5.63;;
40971;SDS011;26701;47.408;19.174;2023-02-28T08:24:20;9.88;;;5.63;;
40971;SDS011;26701;47.408;19.174;2023-02-28T08:26:47;15.68;;;5.95;;
40971;SDS011;26701;47.408;19.174;2023-02-28T08:29:12;9.70;;;5.82;;
40971;SDS011;26701;47.408;19.174;2023-02-28T08:31:38;11.65;;;5.80;;
40971;SDS011;26701;47.408;19.174;2023-02-28T08:34:08;12.70;;;6.20;;
40971;SDS011;26701;47.408;19.174;2023-02-28T08:36:36;10.90;;;6.88;;
40971;SDS011;26701;47.408;19.174;2023-02-28T08:39:03;11.77;;;5.03;;
40971;SDS011;26701;47.408;19.174;2023-02-28T08:41:29;11.43;;;6.28;;
40971;SDS011;26701;47.408;19.174;2023-02-28T08:43:55;9.63;;;5.97;;
40971;SDS011;26701;47.408;19.174;2023-02-28T08:46:21;11.75;;;6.00;;
40971;SDS011;26701;47.408;19.174;2023-02-28T08:48:52;11.18;;;6.57;;
40971;SDS011;26701;47.408;19.174;2023-02-28T08:51:19;10.93;;;5.68;;
40971;SDS011;26701;47.408;19.174;2023-02-28T08:53:52;11.23;;;6.57;;
40971;SDS011;26701;47.408;19.174;2023-02-28T08:56:23;11.75;;;5.80;;
40971;SDS011;26701;47.408;19.174;2023-02-28T08:58:49;10.80;;;5.90;;
40971;SDS011;26701;47.408;19.174;2023-02-28T09:01:17;12.32;;;5.43;;
40971;SDS011;26701;47.408;19.174;2023-02-28T09:03:48;10.93;;;5.38;;
40971;SDS011;26701;47.408;19.174;2023-02-28T09:06:15;8.40;;;5.00;;
40971;SDS011;26701;47.408;19.174;2023-02-28T09:08:42;8.70;;;5.05;;
40971;SDS011;26701;47.408;19.174;2023-02-28T09:11:09;9.73;;;5.38;;
40971;SDS011;26701;47.408;19.174;2023-02-28T09:13:35;11.82;;;5.75;;
40971;SDS011;26701;47.408;19.174;2023-02-28T09:16:02;11.20;;;5.05;;
40971;SDS011;26701;47.408;19.174;2023-02-28T09:18:30;10.23;;;4.97;;
40971;SDS011;26701;47.408;19.174;2023-02-28T09:20:56;12.90;;;5.22;;
40971;SDS011;26701;47.408;19.174;2023-02-28T09:23:23;10.55;;;5.35;;
40971;SDS011;26701;47.408;19.174;2023-02-28T09:25:50;8.32;;;5.38;;
40971;SDS011;26701;47.408;19.174;2023-02-28T09:28:18;10.27;;;6.00;;
40971;SDS011;26701;47.408;19.174;2023-02-28T09:30:45;15.52;;;7.47;;
40971;SDS011;26701;47.408;19.174;2023-02-28T09:33:15;11.23;;;6.18;;
40971;SDS011;26701;47.408;19.174;2023-02-28T09:35:42;23.83;;;10.43;;
40971;SDS011;26701;47.408;19.174;2023-02-28T09:38:08;316.40;;;96.75;;
40971;SDS011;26701;47.408;19.174;2023-02-28T09:40:36;458.73;;;156.00;;
40971;SDS011;26701;47.408;19.174;2023-02-28T09:43:09;224.80;;;82.22;;
40971;SDS011;26701;47.408;19.174;2023-02-28T09:45:40;79.15;;;38.55;;
40971;SDS011;26701;47.408;19.174;2023-02-28T09:48:10;97.73;;;35.60;;
40971;SDS011;26701;47.408;19.174;2023-02-28T09:53:54;20.42;;;12.00;;
40971;SDS011;26701;47.408;19.174;2023-02-28T09:56:21;11.95;;;6.10;;
40971;SDS011;26701;47.408;19.174;2023-02-28T09:59:02;37.92;;;17.08;;
40971;SDS011;26701;47.408;19.174;2023-02-28T10:04:35;12.48;;;7.32;;
40971;SDS011;26701;47.408;19.174;2023-02-28T10:07:03;12.32;;;5.80;;
40971;SDS011;26701;47.408;19.174;2023-02-28T10:09:42;10.45;;;6.32;;
40971;SDS011;26701;47.408;19.174;2023-02-28T10:12:12;11.77;;;5.95;;
40971;SDS011;26701;47.408;19.174;2023-02-28T10:14:39;11.15;;;5.80;;
40971;SDS011;26701;47.408;19.174;2023-02-28T10:17:11;10.63;;;5.95;;
40971;SDS011;26701;47.408;19.174;2023-02-28T10:19:42;13.43;;;6.72;;
40971;SDS011;26701;47.408;19.174;2023-02-28T10:22:15;13.30;;;7.15;;
40971;SDS011;26701;47.408;19.174;2023-02-28T10:24:52;10.65;;;6.43;;
40971;SDS011;26701;47.408;19.174;2023-02-28T10:27:20;8.07;;;5.28;;
40971;SDS011;26701;47.408;19.174;2023-02-28T10:29:53;9.63;;;4.82;;
40971;SDS011;26701;47.408;19.174;2023-02-28T10:32:25;9.13;;;5.38;;
40971;SDS011;26701;47.408;19.174;2023-02-28T10:37:45;9.70;;;5.15;;
40971;SDS011;26701;47.408;19.174;2023-02-28T10:42:55;9.07;;;4.90;;
40971;SDS011;26701;47.408;19.174;2023-02-28T10:45:24;10.25;;;5.35;;
40971;SDS011;26701;47.408;19.174;2023-02-28T10:47:56;9.23;;;5.40;;
40971;SDS011;26701;47.408;19.174;2023-02-28T10:50:37;8.95;;;5.45;;
40971;SDS011;26701;47.408;19.174;2023-02-28T10:55:51;9.93;;;5.15;;
40971;SDS011;26701;47.408;19.174;2023-02-28T10:58:23;7.95;;;5.05;;
40971;SDS011;26701;47.408;19.174;2023-02-28T11:00:51;10.27;;;4.97;;
40971;SDS011;26701;47.408;19.174;2023-02-28T11:03:28;8.48;;;5.22;;
40971;SDS011;26701;47.408;19.174;2023-02-28T11:05:56;8.45;;;4.97;;
40971;SDS011;26701;47.408;19.174;2023-02-28T11:08:22;8.68;;;5.07;;
40971;SDS011;26701;47.408;19.174;2023-02-28T11:10:59;9.00;;;5.03;;
40971;SDS011;26701;47.408;19.174;2023-02-28T11:13:33;10.45;;;5.93;;
40971;SDS011;26701;47.408;19.174;2023-02-28T11:16:02;14.25;;;7.35;;
40971;SDS011;26701;47.408;19.174;2023-02-28T11:18:39;8.07;;;4.57;;
40971;SDS011;26701;47.408;19.174;2023-02-28T11:21:21;34.53;;;17.52;;
40971;SDS011;26701;47.408;19.174;2023-02-28T11:23:51;59.20;;;24.35;;
40971;SDS011;26701;47.408;19.174;2023-02-28T11:26:34;14.77;;;8.57;;
40971;SDS011;26701;47.408;19.174;2023-02-28T11:29:26;10.55;;;5.90;;
40971;SDS011;26701;47.408;19.174;2023-02-28T11:32:05;12.48;;;7.05;;
40971;SDS011;26701;47.408;19.174;2023-02-28T11:34:42;8.35;;;5.00;;
40971;SDS011;26701;47.408;19.174;2023-02-28T11:37:16;7.43;;;4.78;;
40971;SDS011;26701;47.408;19.174;2023-02-28T11:39:44;8.77;;;5.10;;
40971;SDS011;26701;47.408;19.174;2023-02-28T11:55:26;9.75;;;5.85;;
40971;SDS011;26701;47.408;19.174;2023-02-28T12:05:57;8.75;;;5.30;;
40971;SDS011;26701;47.408;19.174;2023-02-28T12:11:48;10.68;;;6.63;;
40971;SDS011;26701;47.408;19.174;2023-02-28T12:14:30;8.40;;;5.82;;
40971;SDS011;26701;47.408;19.174;2023-02-28T12:26:01;9.70;;;6.38;;
40971;SDS011;26701;47.408;19.174;2023-02-28T12:28:36;9.93;;;6.40;;
40971;SDS011;26701;47.408;19.174;2023-02-28T12:31:18;12.50;;;6.57;;
40971;SDS011;26701;47.408;19.174;2023-02-28T12:33:50;8.13;;;5.78;;
40971;SDS011;26701;47.408;19.174;2023-02-28T12:36:19;13.90;;;7.47;;
40971;SDS011;26701;47.408;19.174;2023-02-28T12:39:00;13.15;;;6.43;;
40971;SDS011;26701;47.408;19.174;2023-02-28T12:41:45;8.32;;;6.10;;
40971;SDS011;26701;47.408;19.174;2023-02-28T12:44:20;12.20;;;6.85;;
40971;SDS011;26701;47.408;19.174;2023-02-28T12:46:52;10.25;;;6.57;;
40971;SDS011;26701;47.408;19.174;2023-02-28T12:49:23;11.35;;;7.93;;
40971;SDS011;26701;47.408;19.174;2023-02-28T12:52:14;15.07;;;7.60;;
40971;SDS011;26701;47.408;19.174;2023-02-28T12:54:56;11.05;;;6.85;;
40971;SDS011;26701;47.408;19.174;2023-02-28T12:57:43;13.38;;;7.32;;
40971;SDS011;26701;47.408;19.174;2023-02-28T13:00:25;15.93;;;9.48;;
40971;SDS011;26701;47.408;19.174;2023-02-28T13:03:19;12.48;;;8.13;;
40971;SDS011;26701;47.408;19.174;2023-02-28T13:06:00;10.10;;;6.60;;
40971;SDS011;26701;47.408;19.174;2023-02-28T13:11:23;11.27;;;6.47;;
40971;SDS011;26701;47.408;19.174;2023-02-28T13:13:56;14.50;;;7.28;;
40971;SDS011;26701;47.408;19.174;2023-02-28T13:16:24;11.88;;;6.55;;
40971;SDS011;26701;47.408;19.174;2023-02-28T13:18:50;10.95;;;6.97;;
40971;SDS011;26701;47.408;19.174;2023-02-28T13:21:24;11.35;;;6.55;;
40971;SDS011;26701;47.408;19.174;2023-02-28T13:26:41;10.77;;;6.07;;
40971;SDS011;26701;47.408;19.174;2023-02-28T13:32:18;12.50;;;7.00;;
40971;SDS011;26701;47.408;19.174;2023-02-28T13:42:36;9.32;;;6.20;;
40971;SDS011;26701;47.408;19.174;2023-02-28T13:50:19;148.93;;;53.67;;
40971;SDS011;26701;47.408;19.174;2023-02-28T13:55:45;13.77;;;8.40;;
40971;SDS011;26701;47.408;19.174;2023-02-28T13:58:33;13.90;;;6.55;;
40971;SDS011;26701;47.408;19.174;2023-02-28T14:01:11;10.88;;;6.13;;
40971;SDS011;26701;47.408;19.174;2023-02-28T14:06:31;13.35;;;7.25;;
40971;SDS011;26701;47.408;19.174;2023-02-28T14:15:04;14.40;;;6.78;;
40971;SDS011;26701;47.408;19.174;2023-02-28T14:17:51;12.73;;;6.72;;
40971;SDS011;26701;47.408;19.174;2023-02-28T14:20:18;13.27;;;7.28;;
40971;SDS011;26701;47.408;19.174;2023-02-28T14:25:44;15.60;;;7.57;;
40971;SDS011;26701;47.408;19.174;2023-02-28T14:31:15;14.55;;;7.35;;
40971;SDS011;26701;47.408;19.174;2023-02-28T14:36:38;15.60;;;8.13;;
40971;SDS011;26701;47.408;19.174;2023-02-28T14:39:13;12.05;;;6.78;;
40971;SDS011;26701;47.408;19.174;2023-02-28T14:41:47;12.77;;;7.28;;
40971;SDS011;26701;47.408;19.174;2023-02-28T14:44:15;16.40;;;8.07;;
40971;SDS011;26701;47.408;19.174;2023-02-28T14:46:47;15.05;;;8.27;;
40971;SDS011;26701;47.408;19.174;2023-02-28T14:49:48;14.27;;;8.23;;
40971;SDS011;26701;47.408;19.174;2023-02-28T14:52:23;17.88;;;9.80;;
40971;SDS011;26701;47.408;19.174;2023-02-28T14:54:53;15.98;;;9.15;;
40971;SDS011;26701;47.408;19.174;2023-02-28T14:57:27;22.88;;;11.90;;
40971;SDS011;26701;47.408;19.174;2023-02-28T14:59:59;16.10;;;7.45;;
40971;SDS011;26701;47.408;19.174;2023-02-28T15:02:29;73.00;;;27.67;;
40971;SDS011;26701;47.408;19.174;2023-02-28T15:05:41;72.18;;;28.98;;
40971;SDS011;26701;47.408;19.174;2023-02-28T15:08:02;22.38;;;9.75;;
40971;SDS011;26701;47.408;19.174;2023-02-28T15:10:31;15.35;;;7.45;;
40971;SDS011;26701;47.408;19.174;2023-02-28T15:13:07;12.32;;;6.65;;
40971;SDS011;26701;47.408;19.174;2023-02-28T15:18:30;17.85;;;10.07;;
40971;SDS011;26701;47.408;19.174;2023-02-28T15:21:06;15.32;;;7.57;;
40971;SDS011;26701;47.408;19.174;2023-02-28T15:23:37;12.98;;;7.07;;
40971;SDS011;26701;47.408;19.174;2023-02-28T15:26:04;15.52;;;7.30;;
40971;SDS011;26701;47.408;19.174;2023-02-28T15:28:30;14.27;;;6.90;;
40971;SDS011;26701;47.408;19.174;2023-02-28T15:30:58;10.70;;;6.72;;
40971;SDS011;26701;47.408;19.174;2023-02-28T15:33:29;11.98;;;6.65;;
40971;SDS011;26701;47.408;19.174;2023-02-28T15:36:04;19.10;;;7.40;;
40971;SDS011;26701;47.408;19.174;2023-02-28T15:38:32;14.35;;;7.65;;
40971;SDS011;26701;47.408;19.174;2023-02-28T15:41:00;15.50;;;7.53;;
40971;SDS011;26701;47.408;19.174;2023-02-28T15:48:32;17.33;;;9.07;;
40971;SDS011;26701;47.408;19.174;2023-02-28T15:53:44;15.40;;;8.07;;
40971;SDS011;26701;47.408;19.174;2023-02-28T15:56:42;16.25;;;8.65;;
40971;SDS011;26701;47.408;19.174;2023-02-28T15:59:13;14.32;;;7.35;;
40971;SDS011;26701;47.408;19.174;2023-02-28T16:02:04;17.23;;;9.82;;
40971;SDS011;26701;47.408;19.174;2023-02-28T16:07:34;20.60;;;10.50;;
40971;SDS011;26701;47.408;19.174;2023-02-28T16:10:06;19.25;;;9.52;;
40971;SDS011;26701;47.408;19.174;2023-02-28T16:12:34;15.68;;;7.57;;
40971;SDS011;26701;47.408;19.174;2023-02-28T16:15:25;13.18;;;7.28;;
40971;SDS011;26701;47.408;19.174;2023-02-28T16:17:54;19.52;;;9.13;;
40971;SDS011;26701;47.408;19.174;2023-02-28T16:20:26;16.42;;;8.70;;
40971;SDS011;26701;47.408;19.174;2023-02-28T16:22:54;13.77;;;8.05;;
40971;SDS011;26701;47.408;19.174;2023-02-28T16:25:22;18.98;;;8.77;;
40971;SDS011;26701;47.408;19.174;2023-02-28T16:27:52;15.82;;;9.48;;
40971;SDS011;26701;47.408;19.174;2023-02-28T16:30:26;20.90;;;10.35;;
40971;SDS011;26701;47.408;19.174;2023-02-28T16:32:56;14.55;;;8.98;;
40971;SDS011;26701;47.408;19.174;2023-02-28T16:35:23;13.55;;;7.40;;
40971;SDS011;26701;47.408;19.174;2023-02-28T16:37:50;13.77;;;8.10;;
40971;SDS011;26701;47.408;19.174;2023-02-28T16:40:17;16.58;;;9.05;;
40971;SDS011;26701;47.408;19.174;2023-02-28T16:45:17;15.33;;;8.20;;
40971;SDS011;26701;47.408;19.174;2023-02-28T16:47:49;21.77;;;10.38;;
40971;SDS011;26701;47.408;19.174;2023-02-28T16:50:18;18.38;;;9.55;;
40971;SDS011;26701;47.408;19.174;2023-02-28T16:52:47;19.08;;;9.50;;
40971;SDS011;26701;47.408;19.174;2023-02-28T16:55:14;17.48;;;8.45;;
40971;SDS011;26701;47.408;19.174;2023-02-28T16:57:41;15.85;;;8.85;;
40971;SDS011;26701;47.408;19.174;2023-02-28T17:00:11;20.35;;;10.50;;
40971;SDS011;26701;47.408;19.174;2023-02-28T17:02:38;19.45;;;10.25;;
40971;SDS011;26701;47.408;19.174;2023-02-28T17:05:05;22.63;;;9.27;;
40971;SDS011;26701;47.408;19.174;2023-02-28T17:07:32;17.55;;;9.27;;
40971;SDS011;26701;47.408;19.174;2023-02-28T17:09:58;23.30;;;12.45;;
40971;SDS011;26701;47.408;19.174;2023-02-28T17:12:34;27.33;;;14.55;;
40971;SDS011;26701;47.408;19.174;2023-02-28T17:15:00;136.45;;;53.20;;
40971;SDS011;26701;47.408;19.174;2023-02-28T17:17:27;59.00;;;25.13;;